createdAt,value
2017-05-16T00:00:15.645Z,62.84
2017-05-16T00:00:56.172Z,62.13
2017-05-16T00:01:36.684Z,62.35
2017-05-16T00:02:17.225Z,61.87
2017-05-16T00:02:57.748Z,62.32
2017-05-16T00:03:38.255Z,62.16
2017-05-16T00:04:18.791Z,61.78
2017-05-16T00:04:59.311Z,61.87
2017-05-16T00:05:39.845Z,62.16
2017-05-16T00:06:20.395Z,62.16
2017-05-16T00:07:00.911Z,62.07
2017-05-16T00:07:41.438Z,62.04
2017-05-16T00:08:21.959Z,61.78
2017-05-16T00:09:02.520Z,61.78
2017-05-16T00:09:43.015Z,62.26
2017-05-16T00:10:23.528Z,62.07
2017-05-16T00:11:04.033Z,61.78
2017-05-16T00:11:44.564Z,61.87
2017-05-16T00:12:25.068Z,61.94
2017-05-16T00:13:05.587Z,61.78
2017-05-16T00:13:46.101Z,61.84
2017-05-16T00:14:26.662Z,61.78
2017-05-16T00:15:07.182Z,62.23
2017-05-16T00:15:47.708Z,62.04
2017-05-16T00:16:28.244Z,62.07
2017-05-16T00:17:08.760Z,61.75
2017-05-16T00:17:49.286Z,61.55
2017-05-16T00:18:29.793Z,61.75
2017-05-16T00:19:10.321Z,61.87
2017-05-16T00:19:50.854Z,61.46
2017-05-16T00:20:31.384Z,61.46
2017-05-16T00:21:11.895Z,61.55
2017-05-16T00:21:52.414Z,61.55
2017-05-16T00:22:32.950Z,61.55
2017-05-16T00:23:13.446Z,62.13
2017-05-16T00:23:53.972Z,61.55
2017-05-16T00:24:34.505Z,61.94
2017-05-16T00:25:14.999Z,61.94
2017-05-16T00:25:55.516Z,61.84
2017-05-16T00:26:36.051Z,61.55
2017-05-16T00:27:16.597Z,61.84
2017-05-16T00:27:57.090Z,61.55
2017-05-16T00:28:37.607Z,61.75
2017-05-16T00:29:18.125Z,61.94
2017-05-16T00:29:58.654Z,61.75
2017-05-16T00:30:39.172Z,62.04
2017-05-16T00:31:19.718Z,61.55
2017-05-16T00:32:00.220Z,61.55
2017-05-16T00:32:40.742Z,61.75
2017-05-16T00:33:21.278Z,61.75
2017-05-16T00:34:01.757Z,61.84
2017-05-16T00:34:42.262Z,61.75
2017-05-16T00:35:22.756Z,61.94
2017-05-16T00:36:03.281Z,61.46
2017-05-16T00:36:43.805Z,61.84
2017-05-16T00:37:24.325Z,61.65
2017-05-16T00:38:04.851Z,62.13
2017-05-16T00:38:45.377Z,62.61
2017-05-16T00:39:25.905Z,62.42
2017-05-16T00:40:06.428Z,62.23
2017-05-16T00:40:46.955Z,62.71
2017-05-16T00:41:27.482Z,62.52
2017-05-16T00:42:08.004Z,62.42
2017-05-16T00:42:48.516Z,62.52
2017-05-16T00:43:29.048Z,62.81
2017-05-16T00:44:09.612Z,62.52
2017-05-16T00:44:50.097Z,62.61
2017-05-16T00:45:30.616Z,62.42
2017-05-16T00:46:11.131Z,62.52
2017-05-16T00:46:51.652Z,62.52
2017-05-16T00:47:32.160Z,62.42
2017-05-16T00:48:12.664Z,62.42
2017-05-16T00:48:53.184Z,62.52
2017-05-16T00:49:33.718Z,62.81
2017-05-16T00:50:14.225Z,62.99
2017-05-16T00:50:54.733Z,62.99
2017-05-16T00:51:35.278Z,62.61
2017-05-16T00:52:15.782Z,62.52
2017-05-16T00:52:56.266Z,63.28
2017-05-16T00:53:36.717Z,62.99
2017-05-16T00:54:17.230Z,63.09
2017-05-16T00:54:57.747Z,63.09
2017-05-16T00:55:38.264Z,62.9
2017-05-16T00:56:18.778Z,62.9
2017-05-16T00:56:59.301Z,62.61
2017-05-16T00:57:39.830Z,62.9
2017-05-16T00:58:20.358Z,63.28
2017-05-16T00:59:00.878Z,62.71
2017-05-16T00:59:41.404Z,62.9
2017-05-16T01:00:21.929Z,62.71
2017-05-16T01:01:02.451Z,62.9
2017-05-16T01:01:42.985Z,62.99
2017-05-16T01:02:23.528Z,63.28
2017-05-16T01:03:04.052Z,63.28
2017-05-16T01:03:44.575Z,62.52
2017-05-16T01:04:25.093Z,62.99
2017-05-16T01:05:05.610Z,62.9
2017-05-16T01:05:46.207Z,63.19
2017-05-16T01:06:26.731Z,62.99
2017-05-16T01:07:07.247Z,63.09
2017-05-16T01:07:47.756Z,62.99
2017-05-16T01:08:28.265Z,63.38
2017-05-16T01:09:08.857Z,63.09
2017-05-16T01:09:49.386Z,62.99
2017-05-16T01:10:29.901Z,63.38
2017-05-16T01:11:10.407Z,63.38
2017-05-16T01:11:50.929Z,63.38
2017-05-16T01:12:31.455Z,63.76
2017-05-16T01:13:11.973Z,63.48
2017-05-16T01:13:52.482Z,63.67
2017-05-16T01:14:32.975Z,63.45
2017-05-16T01:15:13.470Z,64.15
2017-05-16T01:15:53.980Z,63.73
2017-05-16T01:16:34.495Z,64.53
2017-05-16T01:17:15.017Z,64.15
2017-05-16T01:17:55.540Z,64.22
2017-05-16T01:18:36.069Z,64.4
2017-05-16T01:19:16.613Z,64.25
2017-05-16T01:19:57.128Z,64.25
2017-05-16T01:20:37.656Z,64.05
2017-05-16T01:21:18.175Z,64.05
2017-05-16T01:21:58.689Z,64.12
2017-05-16T01:22:39.200Z,64.02
2017-05-16T01:23:19.723Z,64.25
2017-05-16T01:24:00.244Z,64.34
2017-05-16T01:24:40.763Z,64.5
2017-05-16T01:25:21.289Z,64.31
2017-05-16T01:26:01.813Z,64.98
2017-05-16T01:26:42.347Z,64.98
2017-05-16T01:27:22.863Z,65.46
2017-05-16T01:28:03.378Z,64.89
2017-05-16T01:28:43.939Z,65.65
2017-05-16T01:29:24.453Z,65.65
2017-05-16T01:30:04.961Z,65.36
2017-05-16T01:30:45.482Z,65.17
2017-05-16T01:31:26.005Z,65.46
2017-05-16T01:32:06.484Z,65.46
2017-05-16T01:32:47.008Z,65.46
2017-05-16T01:33:27.500Z,66.13
2017-05-16T01:34:08.014Z,66.03
2017-05-16T01:34:48.531Z,65.65
2017-05-16T01:35:29.045Z,66.42
2017-05-16T01:36:09.570Z,65.84
2017-05-16T01:36:50.050Z,65.94
2017-05-16T01:37:30.539Z,66.13
2017-05-16T01:38:11.056Z,65.94
2017-05-16T01:38:51.598Z,66.33
2017-05-16T01:39:32.176Z,66.33
2017-05-16T01:40:12.708Z,66.33
2017-05-16T01:40:53.231Z,66.52
2017-05-16T01:41:33.756Z,66.71
2017-05-16T01:42:14.269Z,66.61
2017-05-16T01:42:54.798Z,66.52
2017-05-16T01:43:35.320Z,66.52
2017-05-16T01:44:15.770Z,66.42
2017-05-16T01:44:56.282Z,66.71
2017-05-16T01:45:36.761Z,66.61
2017-05-16T01:46:17.255Z,66.71
2017-05-16T01:46:57.767Z,66.9
2017-05-16T01:47:38.243Z,67.09
2017-05-16T01:48:18.713Z,67.67
2017-05-16T01:48:59.231Z,67.47
2017-05-16T01:49:39.781Z,67.76
2017-05-16T01:50:20.300Z,67.76
2017-05-16T01:51:00.769Z,67.67
2017-05-16T01:51:41.283Z,68.02
2017-05-16T01:52:21.818Z,67.92
2017-05-16T01:53:02.282Z,67.96
2017-05-16T01:53:42.771Z,68.15
2017-05-16T01:54:23.281Z,68.34
2017-05-16T01:55:03.759Z,68.05
2017-05-16T01:55:44.272Z,68.24
2017-05-16T01:56:24.785Z,68.24
2017-05-16T01:57:05.275Z,68.3
2017-05-16T01:57:45.818Z,68.24
2017-05-16T01:58:26.324Z,68.24
2017-05-16T01:59:06.838Z,68.05
2017-05-16T01:59:47.365Z,68.24
2017-05-16T02:00:27.890Z,68.3
2017-05-16T02:01:08.409Z,68.59
2017-05-16T02:01:48.933Z,69.49
2017-05-16T02:02:29.453Z,69.2
2017-05-16T02:03:09.973Z,69.26
2017-05-16T02:03:50.503Z,69.07
2017-05-16T02:04:31.021Z,69.26
2017-05-16T02:05:11.534Z,69.46
2017-05-16T02:05:52.046Z,69.56
2017-05-16T02:06:32.598Z,69.56
2017-05-16T02:07:13.130Z,69.36
2017-05-16T02:07:53.652Z,69.56
2017-05-16T02:08:34.179Z,69.56
2017-05-16T02:09:14.697Z,69.59
2017-05-16T02:09:55.274Z,69.46
2017-05-16T02:10:35.794Z,69.36
2017-05-16T02:11:16.305Z,69.4
2017-05-16T02:11:56.835Z,69.17
2017-05-16T02:12:37.368Z,69.68
2017-05-16T02:13:17.894Z,69.46
2017-05-16T02:13:58.421Z,69.4
2017-05-16T02:14:38.920Z,70.03
2017-05-16T02:15:19.442Z,69.93
2017-05-16T02:16:00.030Z,69.84
2017-05-16T02:16:40.570Z,70.32
2017-05-16T02:17:21.104Z,70.51
2017-05-16T02:18:01.618Z,70.13
2017-05-16T02:18:42.123Z,70.23
2017-05-16T02:19:22.666Z,70.13
2017-05-16T02:20:03.174Z,70.51
2017-05-16T02:20:43.686Z,70.51
2017-05-16T02:21:24.221Z,70.42
2017-05-16T02:22:04.742Z,70.32
2017-05-16T02:22:45.285Z,70.03
2017-05-16T02:23:25.770Z,70.23
2017-05-16T02:24:06.296Z,69.93
2017-05-16T02:24:46.821Z,70.13
2017-05-16T02:25:27.333Z,70.32
2017-05-16T02:26:07.841Z,70.23
2017-05-16T02:26:48.367Z,70.03
2017-05-16T02:27:28.844Z,70.8
2017-05-16T02:28:09.369Z,70.7
2017-05-16T02:28:49.854Z,70.51
2017-05-16T02:29:30.385Z,70.51
2017-05-16T02:30:10.856Z,70.23
2017-05-16T02:30:51.340Z,70.42
2017-05-16T02:31:31.834Z,70.23
2017-05-16T02:32:12.359Z,70.8
2017-05-16T02:32:52.847Z,70.7
2017-05-16T02:33:33.384Z,70.8
2017-05-16T02:34:13.913Z,70.61
2017-05-16T02:34:54.470Z,70.8
2017-05-16T02:35:35.000Z,70.99
2017-05-16T02:36:15.522Z,70.9
2017-05-16T02:36:56.037Z,70.99
2017-05-16T02:37:36.576Z,71.09
2017-05-16T02:38:17.075Z,70.61
2017-05-16T02:38:57.571Z,70.51
2017-05-16T02:39:38.085Z,70.51
2017-05-16T02:40:18.585Z,70.42
2017-05-16T02:40:59.098Z,70.8
2017-05-16T02:41:39.622Z,70.8
2017-05-16T02:42:20.124Z,70.8
2017-05-16T02:43:00.637Z,70.51
2017-05-16T02:43:41.183Z,70.99
2017-05-16T02:44:21.702Z,70.8
2017-05-16T02:45:02.266Z,70.23
2017-05-16T02:45:42.803Z,70.8
2017-05-16T02:46:23.320Z,70.7
2017-05-16T02:47:03.814Z,70.99
2017-05-16T02:47:44.338Z,70.42
2017-05-16T02:48:24.850Z,70.61
2017-05-16T02:49:05.379Z,70.99
2017-05-16T02:49:45.902Z,71.09
2017-05-16T02:50:26.433Z,70.7
2017-05-16T02:51:06.962Z,70.9
2017-05-16T02:51:47.472Z,70.99
2017-05-16T02:52:27.996Z,70.8
2017-05-16T02:53:08.512Z,70.99
2017-05-16T02:53:49.043Z,71.09
2017-05-16T02:54:29.576Z,70.8
2017-05-16T02:55:10.074Z,70.9
2017-05-16T02:55:50.592Z,70.99
2017-05-16T02:56:31.112Z,70.8
2017-05-16T02:57:11.615Z,70.9
2017-05-16T02:57:52.124Z,70.8
2017-05-16T02:58:32.643Z,70.8
2017-05-16T02:59:13.156Z,70.51
2017-05-16T02:59:53.690Z,70.42
2017-05-16T03:00:34.212Z,70.51
2017-05-16T03:01:14.723Z,70.48
2017-05-16T03:01:55.258Z,70.48
2017-05-16T03:02:35.754Z,70.86
2017-05-16T03:03:16.266Z,71.05
2017-05-16T03:05:14.438Z,71.15
2017-05-16T03:05:54.963Z,71.05
2017-05-16T03:06:35.485Z,71.05
2017-05-16T03:07:16.002Z,70.86
2017-05-16T03:07:56.519Z,70.86
2017-05-16T03:08:37.049Z,70.76
2017-05-16T03:09:17.556Z,70.96
2017-05-16T03:09:58.073Z,70.9
2017-05-16T03:10:38.596Z,70.9
2017-05-16T03:11:19.122Z,70.86
2017-05-16T03:11:59.656Z,70.67
2017-05-16T03:12:40.164Z,70.57
2017-05-16T03:13:20.677Z,70.48
2017-05-16T03:14:01.198Z,70
2017-05-16T03:14:41.726Z,70.19
2017-05-16T03:15:22.238Z,70.51
2017-05-16T03:16:02.754Z,69.9
2017-05-16T03:16:43.298Z,69.81
2017-05-16T03:17:23.819Z,69.93
2017-05-16T03:18:04.332Z,69.9
2017-05-16T03:18:44.849Z,69.93
2017-05-16T03:19:25.367Z,69.71
2017-05-16T03:20:05.897Z,69.52
2017-05-16T03:20:46.409Z,69.81
2017-05-16T03:21:26.931Z,69.33
2017-05-16T03:22:07.451Z,69.42
2017-05-16T03:22:47.986Z,69.23
2017-05-16T03:23:28.485Z,69.42
2017-05-16T03:24:09.006Z,69.13
2017-05-16T03:24:49.512Z,69.04
2017-05-16T03:25:30.041Z,68.46
2017-05-16T03:26:10.553Z,68.75
2017-05-16T03:26:51.073Z,68.75
2017-05-16T03:27:31.602Z,68.37
2017-05-16T03:28:12.126Z,68.37
2017-05-16T03:28:52.652Z,68.18
2017-05-16T03:29:33.175Z,68.3
2017-05-16T03:30:13.691Z,68.27
2017-05-16T03:30:54.195Z,68.18
2017-05-16T03:31:34.719Z,68.18
2017-05-16T03:32:15.231Z,68.18
2017-05-16T03:32:55.758Z,68.46
2017-05-16T03:33:36.258Z,67.89
2017-05-16T03:34:16.773Z,68.18
2017-05-16T03:34:57.293Z,67.6
2017-05-16T03:35:37.821Z,67.73
2017-05-16T03:36:18.355Z,68.02
2017-05-16T03:36:58.868Z,68.02
2017-05-16T03:37:39.391Z,67.83
2017-05-16T03:38:19.909Z,67.54
2017-05-16T03:39:00.417Z,67.92
2017-05-16T03:39:40.938Z,67.63
2017-05-16T03:40:21.464Z,67.83
2017-05-16T03:41:01.985Z,67.5
2017-05-16T03:41:42.497Z,67.32
2017-05-16T03:42:23.023Z,67.6
2017-05-16T03:43:03.536Z,67.63
2017-05-16T03:43:44.110Z,67.5
2017-05-16T03:44:24.576Z,67.63
2017-05-16T03:45:05.101Z,67.5
2017-05-16T03:45:45.620Z,67.6
2017-05-16T03:46:26.153Z,67.41
2017-05-16T03:47:06.664Z,67.6
2017-05-16T03:47:47.184Z,67.41
2017-05-16T03:48:27.718Z,67.41
2017-05-16T03:49:08.240Z,67.41
2017-05-16T03:49:48.768Z,67.63
2017-05-16T03:50:29.284Z,67.5
2017-05-16T03:51:09.819Z,67.44
2017-05-16T03:51:50.346Z,67.32
2017-05-16T03:52:30.860Z,67.32
2017-05-16T03:53:11.391Z,66.64
2017-05-16T03:53:51.900Z,66.93
2017-05-16T03:54:32.414Z,67.12
2017-05-16T03:55:12.933Z,67.6
2017-05-16T03:55:53.460Z,67.69
2017-05-16T03:56:33.964Z,66.64
2017-05-16T03:57:14.482Z,66.74
2017-05-16T03:57:55.003Z,66.83
2017-05-16T03:58:35.515Z,66.83
2017-05-16T03:59:16.017Z,66.74
2017-05-16T03:59:56.537Z,66.93
2017-05-16T04:00:37.057Z,66.93
2017-05-16T04:01:17.576Z,66.74
2017-05-16T04:01:58.099Z,67.02
2017-05-16T04:02:38.620Z,66.74
2017-05-16T04:03:19.137Z,67.06
2017-05-16T04:03:59.661Z,66.83
2017-05-16T04:04:40.188Z,66.55
2017-05-16T04:05:20.729Z,66.64
2017-05-16T04:06:01.208Z,66.55
2017-05-16T04:06:41.733Z,66.49
2017-05-16T04:07:22.254Z,66.58
2017-05-16T04:08:02.778Z,66.55
2017-05-16T04:08:43.278Z,66.26
2017-05-16T04:09:23.797Z,66.45
2017-05-16T04:10:04.313Z,66.93
2017-05-16T04:10:44.842Z,66.67
2017-05-16T04:11:25.366Z,66.49
2017-05-16T04:12:05.843Z,66.29
2017-05-16T04:12:46.359Z,66.64
2017-05-16T04:13:26.867Z,66.26
2017-05-16T04:14:07.385Z,66.55
2017-05-16T04:14:47.918Z,66.67
2017-05-16T04:15:28.435Z,66.39
2017-05-16T04:16:08.962Z,66.45
2017-05-16T04:16:49.475Z,66.58
2017-05-16T04:17:29.999Z,66.49
2017-05-16T04:18:10.526Z,66.29
2017-05-16T04:18:51.065Z,65.78
2017-05-16T04:19:31.581Z,66
2017-05-16T04:20:12.100Z,66
2017-05-16T04:20:52.627Z,65.52
2017-05-16T04:21:33.158Z,65.14
2017-05-16T04:22:13.651Z,64.95
2017-05-16T04:22:54.180Z,65.3
2017-05-16T04:23:34.701Z,65.23
2017-05-16T04:24:15.213Z,65.49
2017-05-16T04:24:55.736Z,65.33
2017-05-16T04:25:36.249Z,65.33
2017-05-16T04:26:16.764Z,65.43
2017-05-16T04:26:57.275Z,64.85
2017-05-16T04:27:37.791Z,64.66
2017-05-16T04:28:18.319Z,64.56
2017-05-16T04:28:58.849Z,63.99
2017-05-16T04:29:39.362Z,64.02
2017-05-16T04:30:19.885Z,64.22
2017-05-16T04:31:00.395Z,63.79
2017-05-16T04:31:40.900Z,63.42
2017-05-16T04:32:21.440Z,62.84
2017-05-16T04:33:01.978Z,63.03
2017-05-16T04:33:42.497Z,63.03
2017-05-16T04:34:23.020Z,63.12
2017-05-16T04:35:03.542Z,63.32
2017-05-16T04:35:44.053Z,63.03
2017-05-16T04:36:24.576Z,63.03
2017-05-16T04:37:05.095Z,63.22
2017-05-16T04:37:45.612Z,63.22
2017-05-16T04:38:26.132Z,63.6
2017-05-16T04:39:06.653Z,63.7
2017-05-16T04:39:47.174Z,63.89
2017-05-16T04:40:27.706Z,63.99
2017-05-16T04:41:08.220Z,64.28
2017-05-16T04:41:48.735Z,63.99
2017-05-16T04:42:29.255Z,64.37
2017-05-16T04:43:09.772Z,63.79
2017-05-16T04:43:50.319Z,63.99
2017-05-16T04:44:30.839Z,64.09
2017-05-16T04:45:11.359Z,64.22
2017-05-16T04:45:51.883Z,63.06
2017-05-16T04:46:32.402Z,62.96
2017-05-16T04:47:12.934Z,62.68
2017-05-16T04:47:53.468Z,62.68
2017-05-16T04:48:33.989Z,63.16
2017-05-16T04:49:14.543Z,62.96
2017-05-16T04:49:55.173Z,63.16
2017-05-16T04:50:35.602Z,63.03
2017-05-16T04:51:16.016Z,63.73
2017-05-16T04:51:56.491Z,63.73
2017-05-16T04:52:37.108Z,63.64
2017-05-16T04:53:17.613Z,63.92
2017-05-16T04:53:59.236Z,63.83
2017-05-16T04:54:38.560Z,63.6
2017-05-16T04:55:19.115Z,64.12
2017-05-16T04:55:59.644Z,64.18
2017-05-16T04:56:40.134Z,63.92
2017-05-16T04:57:20.669Z,63.7
2017-05-16T04:58:01.198Z,63.64
2017-05-16T04:58:41.692Z,64.02
2017-05-16T04:59:22.191Z,63.73
2017-05-16T05:00:02.683Z,63.83
2017-05-16T05:00:43.157Z,63.83
2017-05-16T05:01:23.717Z,64.22
2017-05-16T05:02:04.151Z,64.22
2017-05-16T05:02:44.752Z,64.12
2017-05-16T05:03:25.307Z,63.03
2017-05-16T05:04:05.771Z,62.39
2017-05-16T05:04:46.372Z,62.39
2017-05-16T05:05:26.866Z,61.91
2017-05-16T05:06:07.342Z,61.91
2017-05-16T05:06:47.863Z,61.72
2017-05-16T05:07:28.343Z,62.1
2017-05-16T05:08:08.790Z,62.48
2017-05-16T05:08:49.346Z,63.06
2017-05-16T05:09:29.788Z,62.68
2017-05-16T05:10:10.273Z,63.25
2017-05-16T05:10:50.763Z,63.16
2017-05-16T05:11:31.300Z,63.06
2017-05-16T05:12:11.797Z,62.96
2017-05-16T05:12:52.439Z,62.96
2017-05-16T05:13:32.865Z,62.96
2017-05-16T05:14:13.359Z,62.96
2017-05-16T05:14:53.856Z,62.96
2017-05-16T05:15:34.356Z,62.48
2017-05-16T05:16:14.870Z,62.29
2017-05-16T05:16:55.416Z,62.39
2017-05-16T05:17:35.860Z,62.58
2017-05-16T05:18:16.936Z,66.52
2017-05-16T05:18:57.435Z,69.01
2017-05-16T05:19:38.528Z,70.74
2017-05-16T05:20:19.090Z,69.49
2017-05-16T05:20:59.595Z,67.96
2017-05-16T05:21:40.063Z,65.4
2017-05-16T05:22:20.582Z,63.45
2017-05-16T05:23:01.122Z,62.68
2017-05-16T05:23:41.588Z,64.79
2017-05-16T05:24:22.338Z,70.93
2017-05-16T05:25:02.864Z,71.8
2017-05-16T05:25:43.746Z,71.12
2017-05-16T05:26:24.917Z,70.17
2017-05-16T05:27:05.261Z,69.2
2017-05-16T05:27:46.247Z,66.33
2017-05-16T05:28:26.453Z,67.57
2017-05-16T05:29:07.039Z,67.41
2017-05-16T05:29:47.485Z,64.05
2017-05-16T05:30:27.981Z,64.22
2017-05-16T05:31:08.517Z,70.87
2017-05-16T05:31:49.007Z,70.2
2017-05-16T05:32:30.047Z,70.84
2017-05-16T05:33:10.828Z,71.45
2017-05-16T05:33:51.371Z,71.16
2017-05-16T05:34:31.819Z,72.6
2017-05-16T05:35:12.305Z,73.18
2017-05-16T05:35:52.773Z,73.85
2017-05-16T05:36:33.665Z,73.18
2017-05-16T05:37:14.362Z,73.75
2017-05-16T05:37:55.841Z,73.46
2017-05-16T05:38:36.366Z,70.87
2017-05-16T05:39:16.910Z,69.81
2017-05-16T05:39:57.417Z,70.97
2017-05-16T05:40:37.906Z,69.34
2017-05-16T05:41:18.395Z,65.72
2017-05-16T05:41:58.882Z,62.71
2017-05-16T05:42:39.566Z,61.46
2017-05-16T05:43:20.052Z,60.98
2017-05-16T05:44:00.961Z,60.53
2017-05-16T05:44:41.475Z,59.83
2017-05-16T05:45:21.991Z,60.14
2017-05-16T05:46:02.897Z,59.64
2017-05-16T05:46:44.230Z,59.95
2017-05-16T05:47:24.683Z,61.2
2017-05-16T05:48:05.181Z,62.64
2017-05-16T05:48:45.704Z,60.75
2017-05-16T05:49:26.215Z,61.61
2017-05-16T05:50:06.721Z,62.9
2017-05-16T05:50:47.179Z,64.34
2017-05-16T05:51:27.659Z,64.73
2017-05-16T05:52:08.200Z,63.67
2017-05-16T05:52:48.692Z,62.99
2017-05-16T05:53:29.203Z,61.94
2017-05-16T05:54:09.701Z,63.38
2017-05-16T05:54:50.190Z,62.51
2017-05-16T05:55:30.737Z,60.33
2017-05-16T05:56:11.205Z,61.29
2017-05-16T05:56:51.696Z,62.74
2017-05-16T05:57:32.160Z,61.87
2017-05-16T05:58:12.841Z,59.47
2017-05-16T05:58:53.343Z,57.45
2017-05-16T05:59:33.793Z,58.79
2017-05-16T06:00:14.330Z,61.1
2017-05-16T06:00:54.813Z,59.4
2017-05-16T06:01:35.335Z,57.09
2017-05-16T06:02:15.829Z,57.18
2017-05-16T06:02:56.328Z,60.55
2017-05-16T06:03:36.911Z,61.9
2017-05-16T06:04:17.366Z,59.4
2017-05-16T06:04:57.882Z,57.67
2017-05-16T06:05:38.412Z,59.43
2017-05-16T06:06:18.831Z,57.5
2017-05-16T06:06:59.321Z,57.98
2017-05-16T06:07:39.825Z,61.65
2017-05-16T06:08:20.301Z,61.83
2017-05-16T06:09:00.815Z,62.03
2017-05-16T06:09:41.312Z,61.83
2017-05-16T06:10:21.849Z,57.5
2017-05-16T06:11:02.311Z,57.72
2017-05-16T06:11:42.777Z,56.76
2017-05-16T06:12:23.281Z,59.94
2017-05-16T06:13:03.881Z,58.97
2017-05-16T06:13:44.354Z,57.92
2017-05-16T06:14:25.356Z,59.87
2017-05-16T06:15:05.761Z,61.8
2017-05-16T06:15:46.253Z,61.71
2017-05-16T06:16:26.711Z,62.76
2017-05-16T06:17:07.233Z,64.11
2017-05-16T06:17:47.738Z,65.85
2017-05-16T06:18:28.219Z,64.56
2017-05-16T06:19:08.705Z,62.54
2017-05-16T06:19:49.193Z,62.28
2017-05-16T06:20:29.704Z,63.5
2017-05-16T06:21:10.218Z,60.74
2017-05-16T06:21:50.779Z,63.54
2017-05-16T06:22:31.190Z,64.79
2017-05-16T06:23:11.693Z,62.76
2017-05-16T06:23:52.196Z,65.37
2017-05-16T06:24:32.698Z,62.96
2017-05-16T06:25:13.175Z,61.8
2017-05-16T06:25:53.685Z,69.8
2017-05-16T06:26:34.205Z,73.18
2017-05-16T06:27:14.645Z,67.1
2017-05-16T06:27:55.163Z,68.65
2017-05-16T06:28:35.688Z,64.76
2017-05-16T06:29:16.235Z,68.32
2017-05-16T06:29:56.744Z,72.02
2017-05-16T06:30:37.264Z,73.72
2017-05-16T06:31:17.755Z,74.3
2017-05-16T06:31:58.260Z,69.77
2017-05-16T06:32:38.898Z,68.52
2017-05-16T06:33:19.515Z,64.5
2017-05-16T06:34:00.011Z,62.83
2017-05-16T06:34:40.445Z,62.96
2017-05-16T06:35:20.980Z,62.66
2017-05-16T06:36:01.454Z,66.14
2017-05-16T06:36:41.954Z,69.71
2017-05-16T06:37:22.478Z,71.12
2017-05-16T06:38:02.933Z,69.19
2017-05-16T06:38:43.435Z,66.39
2017-05-16T06:39:23.963Z,63.41
2017-05-16T06:40:04.839Z,61.87
2017-05-16T06:40:45.481Z,57.53
2017-05-16T06:41:26.706Z,58.33
2017-05-16T06:42:07.282Z,60.45
2017-05-16T06:42:47.703Z,59
2017-05-16T06:43:28.226Z,57.85
2017-05-16T06:44:09.226Z,54.38
2017-05-16T06:44:49.721Z,61.61
2017-05-16T06:45:30.179Z,64.11
2017-05-16T06:46:11.038Z,61.41
2017-05-16T06:46:51.245Z,61.9
2017-05-16T06:47:31.700Z,64.59
2017-05-16T06:48:12.230Z,63.34
2017-05-16T06:48:52.742Z,65.17
2017-05-16T06:49:33.210Z,64.69
2017-05-16T06:50:13.710Z,63.54
2017-05-16T06:50:54.226Z,59.1
2017-05-16T06:51:34.733Z,57.78
2017-05-16T06:52:15.232Z,58.55
2017-05-16T06:52:55.715Z,60.19
2017-05-16T06:53:36.268Z,55.94
2017-05-16T06:54:16.753Z,57.97
2017-05-16T06:54:57.209Z,58.07
2017-05-16T06:55:37.811Z,56.94
2017-05-16T06:56:18.352Z,55.4
2017-05-16T06:56:58.719Z,52.01
2017-05-16T06:57:39.298Z,55.1
2017-05-16T06:58:19.753Z,55.3
2017-05-16T06:59:00.212Z,55.33
2017-05-16T06:59:40.767Z,56.65
2017-05-16T07:00:21.222Z,56.56
2017-05-16T07:01:01.725Z,55.98
2017-05-16T07:01:42.247Z,55.62
2017-05-16T07:02:22.742Z,55.42
2017-05-16T07:03:03.196Z,53.69
2017-05-16T07:03:43.703Z,54.84
2017-05-16T07:04:24.192Z,60.64
2017-05-16T07:05:04.664Z,59.67
2017-05-16T07:05:45.199Z,56.29
2017-05-16T07:06:25.662Z,59.38
2017-05-16T07:07:06.209Z,58.22
2017-05-16T07:07:46.697Z,61.12
2017-05-16T07:08:27.168Z,57.64
2017-05-16T07:09:07.645Z,52.62
2017-05-16T07:09:48.152Z,51.59
2017-05-16T07:10:28.658Z,50.43
2017-05-16T07:11:09.189Z,51.68
2017-05-16T07:11:49.654Z,50.81
2017-05-16T07:12:30.162Z,54.87
2017-05-16T07:13:10.668Z,57.87
2017-05-16T07:13:51.132Z,57.74
2017-05-16T07:14:31.609Z,55.71
2017-05-16T07:15:12.135Z,56.1
2017-05-16T07:15:52.618Z,52.17
2017-05-16T07:16:33.133Z,53.23
2017-05-16T07:17:13.654Z,56.41
2017-05-16T07:17:54.186Z,57.67
2017-05-16T07:18:34.683Z,53.81
2017-05-16T07:19:15.147Z,50.33
2017-05-16T07:19:55.658Z,49.17
2017-05-16T07:20:36.180Z,52.17
2017-05-16T07:21:16.671Z,62.79
2017-05-16T07:21:57.186Z,62.21
2017-05-16T07:22:37.689Z,59.12
2017-05-16T07:23:18.179Z,59.12
2017-05-16T07:23:58.687Z,53.23
2017-05-16T07:24:39.167Z,54.77
2017-05-16T07:25:19.809Z,54.68
2017-05-16T07:26:00.302Z,51.01
2017-05-16T07:26:40.748Z,51.1
2017-05-16T07:27:21.311Z,63.28
2017-05-16T07:28:01.804Z,68.3
2017-05-16T07:28:42.290Z,69.56
2017-05-16T07:29:22.834Z,70.62
2017-05-16T07:30:03.330Z,70.04
2017-05-16T07:30:43.895Z,62.5
2017-05-16T07:31:24.367Z,57.57
2017-05-16T07:32:04.840Z,55.45
2017-05-16T07:32:45.365Z,54.87
2017-05-16T07:33:25.862Z,56.13
2017-05-16T07:34:06.415Z,56.03
2017-05-16T07:34:46.924Z,62.02
2017-05-16T07:35:27.420Z,65.4
2017-05-16T07:36:07.898Z,63.95
2017-05-16T07:36:48.416Z,58.37
2017-05-16T07:37:28.906Z,54.61
2017-05-16T07:38:09.436Z,55.29
2017-05-16T07:38:49.896Z,52.77
2017-05-16T07:39:30.368Z,50.74
2017-05-16T07:40:10.900Z,52.39
2017-05-16T07:40:51.378Z,63.24
2017-05-16T07:41:31.879Z,54.8
2017-05-16T07:42:12.397Z,56.93
2017-05-16T07:42:52.916Z,55.89
2017-05-16T07:43:33.412Z,61.89
2017-05-16T07:44:13.858Z,61.95
2017-05-16T07:44:54.368Z,56.73
2017-05-16T07:45:34.884Z,59.05
2017-05-16T07:46:15.424Z,57.15
2017-05-16T07:46:55.986Z,54.93
2017-05-16T07:47:36.415Z,60.44
2017-05-16T07:48:16.940Z,59.63
2017-05-16T07:48:57.447Z,57.03
2017-05-16T07:49:37.996Z,54.53
2017-05-16T07:50:18.475Z,52.8
2017-05-16T07:50:58.992Z,58.02
2017-05-16T07:51:39.496Z,61.47
2017-05-16T07:52:20.052Z,58.67
2017-05-16T07:53:00.496Z,57.48
2017-05-16T07:53:40.961Z,58.45
2017-05-16T07:54:21.456Z,56.8
2017-05-16T07:55:02.061Z,56.9
2017-05-16T07:55:42.512Z,53.23
2017-05-16T07:56:22.944Z,53.33
2017-05-16T07:57:03.486Z,52.07
2017-05-16T07:57:43.968Z,54.71
2017-05-16T07:58:24.572Z,57.29
2017-05-16T07:59:04.941Z,57.57
2017-05-16T07:59:45.425Z,58.93
2017-05-16T08:00:25.987Z,60.57
2017-05-16T08:01:06.588Z,64.72
2017-05-16T08:01:47.050Z,67.04
2017-05-16T08:02:27.532Z,68.4
2017-05-16T08:03:08.072Z,62.21
2017-05-16T08:03:48.522Z,54.97
2017-05-16T08:04:29.004Z,53.23
2017-05-16T08:05:09.568Z,52.26
2017-05-16T08:05:50.078Z,52
2017-05-16T08:06:30.573Z,50.45
2017-05-16T08:07:11.050Z,52.75
2017-05-16T08:07:51.658Z,55.96
2017-05-16T08:08:32.069Z,63.6
2017-05-16T08:09:12.561Z,66.4
2017-05-16T08:09:53.073Z,58.57
2017-05-16T08:10:33.524Z,55.87
2017-05-16T08:11:14.025Z,56.15
2017-05-16T08:11:54.528Z,64.89
2017-05-16T08:12:35.004Z,60.53
2017-05-16T08:13:15.608Z,62.85
2017-05-16T08:13:56.024Z,67.4
2017-05-16T08:14:36.483Z,63.79
2017-05-16T08:15:17.010Z,57.63
2017-05-16T08:15:57.469Z,54.13
2017-05-16T08:16:37.949Z,51.32
2017-05-16T08:17:18.448Z,59.53
2017-05-16T08:17:58.950Z,69.49
2017-05-16T08:18:39.453Z,54.39
2017-05-16T08:19:19.971Z,53.52
2017-05-16T08:20:00.666Z,62.92
2017-05-16T08:20:41.452Z,66.59
2017-05-16T08:21:21.860Z,70.46
2017-05-16T08:22:02.366Z,68.62
2017-05-16T08:22:42.846Z,66.88
2017-05-16T08:23:23.395Z,57.6
2017-05-16T08:24:03.871Z,59.34
2017-05-16T08:24:44.355Z,59.34
2017-05-16T08:25:24.964Z,61.37
2017-05-16T08:26:05.440Z,65.82
2017-05-16T08:26:45.980Z,64.47
2017-05-16T08:27:26.469Z,57.12
2017-05-16T08:28:06.948Z,58.09
2017-05-16T08:28:47.477Z,59.66
2017-05-16T08:29:27.953Z,60.44
2017-05-16T08:30:08.427Z,65.17
2017-05-16T08:30:48.923Z,66.88
2017-05-16T08:31:29.448Z,67.94
2017-05-16T08:32:09.942Z,66.59
2017-05-16T08:32:50.438Z,66.2
2017-05-16T08:33:30.914Z,65.05
2017-05-16T08:34:11.401Z,64.34
2017-05-16T08:34:51.917Z,58.45
2017-05-16T08:35:32.431Z,57.67
2017-05-16T08:36:12.944Z,60.09
2017-05-16T08:36:53.441Z,61.25
2017-05-16T08:37:33.924Z,59.6
2017-05-16T08:38:14.419Z,60.86
2017-05-16T08:38:54.922Z,59.22
2017-05-16T08:39:35.389Z,59.31
2017-05-16T08:40:15.885Z,54.03
2017-05-16T08:40:56.453Z,54.71
2017-05-16T08:41:36.963Z,55.67
2017-05-16T08:42:17.496Z,51.81
2017-05-16T08:42:57.977Z,50.16
2017-05-16T08:43:38.424Z,52.58
2017-05-16T08:44:18.919Z,50.16
2017-05-16T08:44:59.428Z,53.45
2017-05-16T08:45:39.941Z,54.51